首页
METAR-TAF:

METAR-TAF

机场 :

Bad Vöslau

巴特弗斯勞, 奥地利

纬度: 47-57-52N, 经度: 016-15-34E, 海拔: 233米

当前天气观测

该预报发布于31分钟前的09:00 UTC
风速13节,风向北转西北
温度 3°C
湿度 100%
气压
能見度: 8000
小雨

METAR: LOAV 050900Z 33013KT 8000 -RA FEW008ST BKN015SC 03/03

时间: 10:31 (09:31 UTC)

预报

该预报发布于1小时和31分钟前的08:00 UTC
预报有效从05日的 09点(UTC)到 05日的 18点(UTC)
风速15节,风向北转西北,有时为28节阵风
能見度: 7000
阴天层高于800英尺
成为
从 05日的 10点(UTC)到 05日的 12点(UTC)
能见度10公里或以上
多云层高于2000英尺
短暂存在
从 05日的 10点(UTC)到 05日的 15点(UTC)
小阵雨

TAF: LOAV 050800Z 0509/0518 33015G28KT 7000 RA OVC008 BECMG 0510/0512 9999 NSW BKN020 TEMPO 0510/0515 -SHRA

超过4000个机场的气象观测和天气预报(METAR&TAF报告)。

可查询的气象台以黄色和红色小点在地图上表示。

将鼠标移到小点上方,可查看气象台名称。

然后点击查看天气观测和预报。

如需切换地图:点击带黑十字的绿色按钮放大地图;点击带横线的绿色按钮缩小地图;或者点击绿色箭头查看邻近地区的地图。


METAR-TAF: